Time;durP1;ratioP1;P1;durP2;ratioP2;P2;SDS_P1;SDS_P2;PMS_P1;PMS_P2;Temp;Humidity;BMP_temperature;BMP_pressure;BME280_temperature;BME280_humidity;BME280_pressure;Samples;Min_cycle;Max_cycle;Signal;HPM_P1;HPM_P2
2023/08/25 00:01:24;;;;;;;11.52;10.35;;;614.60;2432.00;;;;;;5049113;28;20025;-66
2023/08/25 00:03:50;;;;;;;11.27;10.07;;;614.60;2432.00;;;;;;5048966;28;20037;-63
2023/08/25 00:06:16;;;;;;;12.57;10.75;;;614.50;2432.00;;;;;;5048982;28;20466;-66
2023/08/25 00:08:42;;;;;;;12.90;10.80;;;614.50;2432.00;;;;;;5048699;28;20017;-65
2023/08/25 00:11:07;;;;;;;12.20;9.70;;;614.50;2432.00;;;;;;5048680;28;20079;-63
2023/08/25 00:13:35;;;;;;;14.65;10.45;;;614.50;2432.00;;;;;;5048514;28;20036;-66
2023/08/25 00:16:04;;;;;;;12.77;10.63;;;614.50;2432.00;;;;;;5048632;28;20019;-67
2023/08/25 00:18:30;;;;;;;17.73;10.75;;;614.50;2432.00;;;;;;5048688;28;20091;-64
2023/08/25 00:20:56;;;;;;;10.70;9.65;;;614.50;2432.00;;;;;;5049136;28;20017;-59
2023/08/25 00:23:22;;;;;;;14.90;10.50;;;614.50;2432.00;;;;;;5048699;28;20363;-65
2023/08/25 00:25:47;;;;;;;14.35;10.63;;;614.50;2432.00;;;;;;5048983;28;20055;-67
2023/08/25 00:28:13;;;;;;;11.60;10.45;;;614.50;2432.00;;;;;;5050051;28;20471;-68
2023/08/25 00:30:39;;;;;;;11.93;10.75;;;614.50;2432.00;;;;;;5060252;28;20371;-67
2023/08/25 00:33:04;;;;;;;13.05;11.20;;;614.50;2432.00;;;;;;5050049;28;20548;-65
2023/08/25 00:35:30;;;;;;;12.10;10.80;;;614.40;2432.00;;;;;;5052674;28;20028;-65
2023/08/25 00:37:58;;;;;;;15.43;11.23;;;589.70;2432.00;;;;;;5052914;28;20052;-64
2023/08/25 00:40:24;;;;;;;12.52;10.43;;;589.70;2432.00;;;;;;5052522;28;20535;-65
2023/08/25 00:42:49;;;;;;;12.20;11.00;;;589.70;2432.00;;;;;;5052656;28;20120;-65
2023/08/25 00:45:15;;;;;;;12.57;11.02;;;589.60;2432.00;;;;;;5052840;28;20028;-65
2023/08/25 00:47:41;;;;;;;17.55;10.70;;;589.60;2432.00;;;;;;5053441;28;20108;-65
2023/08/25 00:50:09;;;;;;;13.27;11.48;;;589.50;2432.00;;;;;;5072868;28;20029;-66
2023/08/25 00:52:36;;;;;;;14.20;11.70;;;589.50;2432.00;;;;;;5072730;28;20044;-65
2023/08/25 00:55:03;;;;;;;16.70;11.00;;;589.50;2432.00;;;;;;5072399;28;20024;-64
2023/08/25 00:57:31;;;;;;;17.33;12.50;;;589.30;2432.00;;;;;;5072159;28;20482;-62
2023/08/25 00:59:57;;;;;;;14.73;10.55;;;589.30;2432.00;;;;;;5072866;28;20029;-61
2023/08/25 01:02:24;;;;;;;13.90;10.68;;;589.40;2432.00;;;;;;5072345;28;20634;-65
2023/08/25 01:04:50;;;;;;;15.73;11.55;;;589.30;2432.00;;;;;;5071649;28;20094;-61
2023/08/25 01:07:16;;;;;;;17.42;11.48;;;589.30;2432.00;;;;;;5069623;28;20025;-63
2023/08/25 01:09:42;;;;;;;11.93;10.35;;;589.30;2432.00;;;;;;5062021;28;20421;-65
2023/08/25 01:12:27;;;;;;;13.60;12.05;;;589.30;2432.00;;;;;;5071817;28;20036;-64
2023/08/25 01:15:04;;;;;;;13.65;10.45;;;589.30;2432.00;;;;;;5071692;28;20036;-63
2023/08/25 01:17:59;;;;;;;12.40;11.20;;;589.20;2432.00;;;;;;5071939;28;20471;-61
2023/08/25 01:20:26;;;;;;;13.30;11.63;;;589.10;2432.00;;;;;;5072016;28;20047;-67
2023/08/25 01:23:13;;;;;;;13.25;10.93;;;589.20;2432.00;;;;;;5071529;28;20027;-64
2023/08/25 01:25:40;;;;;;;12.52;10.45;;;589.10;2432.00;;;;;;5071717;28;20071;-66
2023/08/25 01:28:06;;;;;;;12.75;10.65;;;589.00;2432.00;;;;;;5072050;28;20020;-62
2023/08/25 01:30:34;;;;;;;15.15;11.25;;;588.90;2432.00;;;;;;5071664;28;20095;-66
2023/08/25 01:33:02;;;;;;;15.80;11.68;;;588.90;2432.00;;;;;;5071364;28;20029;-65
2023/08/25 01:35:40;;;;;;;12.57;11.27;;;588.80;2432.00;;;;;;5071736;28;20017;-65
2023/08/25 01:38:25;;;;;;;12.55;11.15;;;588.90;2432.00;;;;;;5071715;28;20071;-64
2023/08/25 01:40:54;;;;;;;14.90;11.68;;;588.90;2432.00;;;;;;5071376;28;20104;-65
2023/08/25 01:43:24;;;;;;;14.50;12.25;;;588.80;2432.00;;;;;;5071374;28;20071;-65
2023/08/25 01:45:53;;;;;;;17.27;12.93;;;588.90;2432.00;;;;;;5070315;28;20070;-61
2023/08/25 01:48:19;;;;;;;13.68;12.18;;;588.80;2432.00;;;;;;5071933;28;20380;-65
2023/08/25 01:50:45;;;;;;;16.67;12.10;;;588.80;2432.00;;;;;;5071102;28;20485;-62
2023/08/25 01:53:12;;;;;;;12.13;10.93;;;588.80;2432.00;;;;;;5071544;28;20036;-61
2023/08/25 01:55:38;;;;;;;12.90;11.38;;;564.10;2432.00;;;;;;5071588;28;20027;-68
2023/08/25 01:58:03;;;;;;;16.02;11.32;;;588.80;2432.00;;;;;;5071423;28;20024;-60
2023/08/25 02:00:29;;;;;;;16.80;12.43;;;564.10;2432.00;;;;;;5070907;28;20048;-62
2023/08/25 02:02:55;;;;;;;13.57;12.13;;;588.80;2432.00;;;;;;5071381;28;20032;-66
2023/08/25 02:05:22;;;;;;;15.63;11.70;;;564.10;2432.00;;;;;;5070547;28;20486;-65
2023/08/25 02:07:48;;;;;;;16.40;11.88;;;564.10;2432.00;;;;;;5071430;28;20017;-67
2023/08/25 02:10:13;;;;;;;13.00;11.45;;;564.10;2432.00;;;;;;5071136;28;20107;-66
2023/08/25 02:12:39;;;;;;;15.35;11.07;;;564.10;2432.00;;;;;;5071223;28;20578;-62
2023/08/25 02:15:05;;;;;;;16.50;12.00;;;564.10;2432.00;;;;;;5071062;28;20033;-63
2023/08/25 02:17:31;;;;;;;15.80;11.18;;;564.10;2432.00;;;;;;5071040;28;20017;-65
2023/08/25 02:19:57;;;;;;;17.33;11.57;;;564.10;2432.00;;;;;;5071078;28;20512;-64
2023/08/25 02:22:23;;;;;;;14.85;11.95;;;564.00;2432.00;;;;;;5070672;28;20016;-67
2023/08/25 02:24:49;;;;;;;17.95;11.40;;;564.00;2432.00;;;;;;5071060;28;20507;-61
2023/08/25 02:27:15;;;;;;;16.25;11.88;;;564.00;2432.00;;;;;;5070883;28;20020;-67
2023/08/25 02:29:40;;;;;;;14.15;11.90;;;564.00;2432.00;;;;;;5070602;28;20028;-61
2023/08/25 02:32:06;;;;;;;18.60;12.20;;;564.00;2432.00;;;;;;5071057;28;20032;-64
2023/08/25 02:34:32;;;;;;;13.38;11.98;;;564.00;2432.00;;;;;;5070628;28;20059;-60
2023/08/25 02:36:57;;;;;;;15.18;13.05;;;564.00;2432.00;;;;;;5070762;28;20028;-61
2023/08/25 02:39:23;;;;;;;17.30;13.43;;;563.90;2432.00;;;;;;5070107;28;20035;-59
2023/08/25 02:41:50;;;;;;;13.85;12.48;;;563.80;2432.00;;;;;;5070564;28;20033;-65
2023/08/25 02:44:15;;;;;;;13.27;11.88;;;563.80;2432.00;;;;;;5070158;28;20036;-66
2023/08/25 02:46:43;;;;;;;12.70;11.45;;;563.70;2432.00;;;;;;5070202;28;20025;-66
2023/08/25 02:49:08;;;;;;;15.05;12.25;;;563.70;2432.00;;;;;;5070392;28;20470;-65
2023/08/25 02:51:34;;;;;;;15.18;12.23;;;563.60;2432.00;;;;;;5070138;28;20012;-61
2023/08/25 02:54:00;;;;;;;14.00;12.60;;;563.60;2432.00;;;;;;5069985;28;20032;-63
2023/08/25 02:56:25;;;;;;;14.40;12.27;;;563.60;2432.00;;;;;;5070226;28;20016;-61
2023/08/25 02:58:51;;;;;;;13.00;10.85;;;563.60;2432.00;;;;;;5069879;28;20421;-64
2023/08/25 03:01:17;;;;;;;12.68;11.48;;;563.70;2432.00;;;;;;5070162;28;20035;-62
2023/08/25 03:03:44;;;;;;;15.73;12.43;;;563.80;2432.00;;;;;;5069982;28;20466;-63
2023/08/25 03:06:10;;;;;;;14.07;12.30;;;564.00;2432.00;;;;;;5069701;28;20033;-62
2023/08/25 03:08:35;;;;;;;12.85;11.55;;;563.90;2432.00;;;;;;5069921;28;20592;-62
2023/08/25 03:11:03;;;;;;;13.73;11.60;;;563.80;2432.00;;;;;;5069460;28;20036;-64
2023/08/25 03:13:29;;;;;;;22.02;12.20;;;563.70;2432.00;;;;;;5069866;28;20382;-64
2023/08/25 03:15:55;;;;;;;14.40;11.65;;;563.60;2432.00;;;;;;5069998;28;20031;-65
2023/08/25 03:18:20;;;;;;;12.88;11.52;;;563.60;2432.00;;;;;;5069224;28;20378;-62
2023/08/25 03:20:51;;;;;;;15.02;12.07;;;563.60;2432.00;;;;;;5069656;28;20052;-65
2023/08/25 03:23:17;;;;;;;13.32;11.80;;;563.50;2432.00;;;;;;5069480;28;20029;-64
2023/08/25 03:25:43;;;;;;;13.50;11.98;;;563.60;2432.00;;;;;;5069620;28;20035;-64
2023/08/25 03:28:09;;;;;;;13.48;12.07;;;563.60;2432.00;;;;;;5069484;28;20433;-61
2023/08/25 03:30:35;;;;;;;12.88;11.57;;;563.60;2432.00;;;;;;5069408;28;20021;-64
2023/08/25 03:33:01;;;;;;;13.55;12.00;;;563.60;2432.00;;;;;;5069435;28;20025;-62
2023/08/25 03:35:26;;;;;;;13.32;11.90;;;563.60;2432.00;;;;;;5069370;28;20021;-62
2023/08/25 03:37:52;;;;;;;13.10;11.23;;;563.60;2432.00;;;;;;5069300;28;20090;-64
2023/08/25 03:40:21;;;;;;;16.17;12.38;;;563.70;2432.00;;;;;;5069918;28;20024;-61
2023/08/25 03:42:47;;;;;;;13.63;11.82;;;563.70;2432.00;;;;;;5069665;28;20035;-65
2023/08/25 03:45:12;;;;;;;14.43;12.10;;;563.80;2432.00;;;;;;5068981;28;20036;-64
2023/08/25 03:47:38;;;;;;;13.57;12.23;;;563.80;2432.00;;;;;;5069604;28;20508;-64
2023/08/25 03:50:04;;;;;;;14.95;13.27;;;563.80;2432.00;;;;;;5069105;28;20043;-65
2023/08/25 03:52:30;;;;;;;14.23;12.57;;;563.80;2432.00;;;;;;5068912;28;20355;-65
2023/08/25 03:54:56;;;;;;;15.10;13.52;;;563.80;2432.00;;;;;;5069659;28;20027;-61
2023/08/25 03:57:21;;;;;;;14.38;12.98;;;563.60;2432.00;;;;;;5069714;28;20429;-63
2023/08/25 03:59:47;;;;;;;14.35;12.02;;;563.60;2432.00;;;;;;5069115;28;20382;-67
2023/08/25 04:02:13;;;;;;;14.85;13.00;;;563.60;2432.00;;;;;;5069073;28;20058;-65
2023/08/25 04:04:38;;;;;;;14.23;11.90;;;563.60;2432.00;;;;;;5068812;28;20024;-62
2023/08/25 04:07:04;;;;;;;15.25;12.90;;;563.60;2432.00;;;;;;5068699;28;20021;-65
2023/08/25 04:09:30;;;;;;;14.52;12.40;;;563.50;2432.00;;;;;;5068445;28;20029;-62
2023/08/25 04:11:56;;;;;;;20.80;13.65;;;563.60;2432.00;;;;;;5068908;28;20098;-65
2023/08/25 04:14:23;;;;;;;15.02;13.52;;;563.70;2432.00;;;;;;5069014;28;20090;-65
2023/08/25 04:16:48;;;;;;;14.70;13.20;;;563.60;2432.00;;;;;;5068874;28;20016;-62
2023/08/25 04:19:16;;;;;;;15.40;13.80;;;563.70;2432.00;;;;;;5068585;28;20023;-64
2023/08/25 04:21:43;;;;;;;14.60;12.65;;;563.80;2432.00;;;;;;5068727;28;20032;-65
2023/08/25 04:24:09;;;;;;;14.52;13.00;;;563.80;2432.00;;;;;;5068448;28;20093;-62
2023/08/25 04:26:35;;;;;;;14.95;13.35;;;563.80;2432.00;;;;;;5069103;28;20470;-62
2023/08/25 04:29:00;;;;;;;14.80;12.15;;;564.00;2432.00;;;;;;5068936;28;20029;-61
2023/08/25 04:31:26;;;;;;;17.88;13.02;;;564.10;2432.00;;;;;;5068981;28;20025;-65
2023/08/25 04:33:52;;;;;;;17.35;13.13;;;564.10;2432.00;;;;;;5068914;28;20386;-63
2023/08/25 04:36:17;;;;;;;14.80;12.82;;;588.80;2432.00;;;;;;5068877;28;20063;-64
2023/08/25 04:38:43;;;;;;;13.18;11.88;;;589.10;2432.00;;;;;;5068712;28;20370;-65
2023/08/25 04:41:09;;;;;;;17.90;11.45;;;589.20;2432.00;;;;;;5068654;28;20036;-62
2023/08/25 04:43:34;;;;;;;16.08;13.00;;;614.60;2432.00;;;;;;5068835;28;20036;-64
2023/08/25 04:46:00;;;;;;;12.63;11.43;;;589.70;2432.00;;;;;;5068597;28;20040;-63
2023/08/25 04:48:26;;;;;;;16.30;11.80;;;589.60;2432.00;;;;;;5068828;28;20020;-62
2023/08/25 04:50:51;;;;;;;12.90;11.60;;;589.50;2432.00;;;;;;5067827;28;20020;-61
2023/08/25 04:53:17;;;;;;;13.75;11.10;;;589.50;2432.00;;;;;;5068932;28;20419;-64
2023/08/25 04:55:43;;;;;;;12.85;11.55;;;589.70;2432.00;;;;;;5068315;28;20094;-60
2023/08/25 04:58:08;;;;;;;12.43;10.98;;;615.20;2432.00;;;;;;5068688;28;20021;-65
2023/08/25 05:00:34;;;;;;;15.80;12.30;;;666.00;2432.00;;;;;;5067921;28;20027;-64
2023/08/25 05:03:00;;;;;;;12.60;11.07;;;691.30;2432.00;;;;;;5066663;28;20079;-61
2023/08/25 05:05:26;;;;;;;14.23;12.32;;;691.20;2432.00;;;;;;5068527;28;20036;-65
2023/08/25 05:07:52;;;;;;;13.95;12.57;;;666.50;2432.00;;;;;;5068259;28;20512;-66
2023/08/25 05:10:17;;;;;;;15.13;11.35;;;691.30;2432.00;;;;;;5068223;28;20056;-67
2023/08/25 05:12:43;;;;;;;12.02;10.85;;;691.40;2432.00;;;;;;5067938;28;20047;-68
2023/08/25 05:15:09;;;;;;;14.75;11.13;;;691.80;2432.00;;;;;;5068210;28;20086;-62
2023/08/25 05:17:35;;;;;;;14.40;11.40;;;692.10;2432.00;;;;;;5068353;28;20113;-69
2023/08/25 05:20:01;;;;;;;13.63;12.23;;;;;;;;;;5070725;28;20497;-62
2023/08/25 05:22:27;;;;;;;14.45;12.93;;;743.10;2432.00;;;;;;5071708;28;20024;-61
2023/08/25 05:24:52;;;;;;;13.95;12.57;;;819.60;2201.60;;;;;;5071585;28;20037;-68
2023/08/25 05:27:18;;;;;;;13.63;12.07;;;845.30;2073.60;;;;;;5071965;28;20481;-61
2023/08/25 05:29:44;;;;;;;13.43;10.85;;;845.60;2022.40;;;;;;5072025;28;20028;-69
2023/08/25 05:32:10;;;;;;;13.88;11.20;;;871.20;1894.40;;;;;;5071542;28;20032;-68
2023/08/25 05:34:36;;;;;;;12.00;10.88;;;922.20;1792.00;;;;;;5071783;28;20150;-69
2023/08/25 05:37:02;;;;;;;16.20;11.52;;;947.60;1715.20;;;;;;5071581;28;20351;-68
2023/08/25 05:39:28;;;;;;;12.50;10.90;;;998.40;1638.40;;;;;;5071597;28;20021;-67
2023/08/25 05:41:54;;;;;;;12.15;11.07;;;;;;;;;;5071212;28;20029;-68
2023/08/25 05:44:20;;;;;;;11.98;10.88;;;;;;;;;;5071224;28;20047;-65
2023/08/25 05:46:47;;;;;;;14.80;12.45;;;;;;;;;;5071888;28;20025;-65
2023/08/25 05:49:13;;;;;;;14.43;12.98;;;;;;;;;;5071214;28;20489;-66
2023/08/25 05:51:39;;;;;;;13.65;11.85;;;;;;;;;;5071051;28;20090;-64
2023/08/25 05:54:05;;;;;;;13.63;12.32;;;;;;;;;;5071388;28;20501;-65
2023/08/25 05:56:32;;;;;;;17.08;11.65;;;;;;;;;;5070653;28;20021;-67
2023/08/25 05:59:01;;;;;;;20.33;12.02;;;;;;;;;;5071528;28;20032;-64
2023/08/25 06:01:28;;;;;;;13.20;11.85;;;1050.50;1433.60;;;;;;5071378;28;20067;-64
2023/08/25 06:03:53;;;;;;;13.25;12.02;;;1075.60;1382.40;;;;;;5070958;28;20078;-68
2023/08/25 06:06:19;;;;;;;13.30;12.00;;;1075.70;1382.40;;;;;;5071158;28;20032;-62
2023/08/25 06:08:45;;;;;;;12.70;11.45;;;1050.30;1408.00;;;;;;5071236;28;20087;-68
2023/08/25 06:11:10;;;;;;;12.60;11.55;;;1050.40;1408.00;;;;;;5070609;28;20047;-68
2023/08/25 06:13:36;;;;;;;13.23;11.93;;;1076.10;1356.80;;;;;;5071405;28;20040;-67
2023/08/25 06:16:03;;;;;;;13.43;11.88;;;1126.50;1331.20;;;;;;5071292;28;20024;-67
2023/08/25 06:18:28;;;;;;;13.55;12.27;;;1127.10;1305.60;;;;;;5056733;28;20086;-66
2023/08/25 06:20:54;;;;;;;14.30;13.02;;;1127.00;1331.20;;;;;;5070853;28;20103;-68
2023/08/25 06:23:20;;;;;;;13.55;12.45;;;1127.30;1331.20;;;;;;5070601;28;20017;-68
2023/08/25 06:25:46;;;;;;;13.07;11.98;;;1126.90;1331.20;;;;;;5056868;28;20045;-69
2023/08/25 06:28:12;;;;;;;13.43;12.32;;;1127.10;1331.20;;;;;;5053210;28;20017;-69
2023/08/25 06:30:41;;;;;;;14.45;12.45;;;;;;;;;;5061171;28;20032;-69
2023/08/25 06:33:06;;;;;;;13.90;12.68;;;1152.10;1280.00;;;;;;5050376;28;20053;-65
2023/08/25 06:35:32;;;;;;;13.02;11.82;;;1152.10;1280.00;;;;;;5056625;28;20052;-68
2023/08/25 06:37:58;;;;;;;15.80;14.32;;;1152.50;1254.40;;;;;;5058489;28;20111;-68
2023/08/25 06:40:24;;;;;;;16.02;13.75;;;1127.30;1305.60;;;;;;5059636;28;20021;-71
2023/08/25 06:42:49;;;;;;;15.85;14.52;;;1152.00;1305.60;;;;;;5050364;28;20032;-68
2023/08/25 06:45:15;;;;;;;15.00;13.75;;;1152.20;1305.60;;;;;;5050422;28;20060;-67
2023/08/25 06:47:41;;;;;;;15.27;14.05;;;1152.20;1280.00;;;;;;5050075;28;20028;-70
2023/08/25 06:50:07;;;;;;;16.35;14.77;;;1126.90;1305.60;;;;;;5050536;28;20037;-68
2023/08/25 06:52:33;;;;;;;16.83;15.27;;;1177.70;1228.80;;;;;;5050241;28;20075;-69
2023/08/25 06:54:58;;;;;;;16.08;14.70;;;1177.70;1228.80;;;;;;5050755;28;20021;-69
2023/08/25 06:57:24;;;;;;;14.50;13.38;;;1127.30;1280.00;;;;;;5050618;28;20463;-69
2023/08/25 06:59:50;;;;;;;17.10;15.80;;;1152.10;1280.00;;;;;;5050157;28;20047;-69
2023/08/25 07:02:16;;;;;;;17.17;15.55;;;1178.50;1203.20;;;;;;5065637;28;20064;-68
2023/08/25 07:04:42;;;;;;;17.35;15.75;;;1229.00;1177.60;;;;;;5069537;28;20481;-68
2023/08/25 07:07:08;;;;;;;17.42;15.10;;;1254.80;1152.00;;;;;;5056347;28;20078;-68
2023/08/25 07:09:35;;;;;;;16.42;14.93;;;1255.00;1152.00;;;;;;5069946;28;20024;-68
2023/08/25 07:12:03;;;;;;;18.10;16.27;;;1280.50;1100.80;;;;;;5069470;28;20059;-70
2023/08/25 07:14:31;;;;;;;19.33;17.67;;;;;;;;;;5070183;28;20048;-63
2023/08/25 07:16:57;;;;;;;19.45;17.33;;;;;;;;;;5069856;28;20095;-66
2023/08/25 07:19:23;;;;;;;17.85;16.35;;;;;;;;;;5069962;28;20071;-69
2023/08/25 07:21:49;;;;;;;18.10;16.73;;;;;;;;;;5069997;28;20398;-63
2023/08/25 07:24:15;;;;;;;17.60;16.00;;;;;;;;;;5069563;28;20024;-69
2023/08/25 07:26:41;;;;;;;17.70;16.40;;;;;;;;;;5069214;28;20544;-69
2023/08/25 07:29:08;;;;;;;17.58;16.27;;;;;;;;;;5069587;28;20029;-66
2023/08/25 07:31:34;;;;;;;17.67;14.88;;;;;;;;;;5069596;28;20024;-70
2023/08/25 07:34:00;;;;;;;17.30;15.82;;;;;;;;;;5069427;28;20052;-68
2023/08/25 07:36:26;;;;;;;17.55;16.13;;;1255.30;1126.40;;;;;;5069619;28;20016;-69
2023/08/25 07:38:52;;;;;;;19.35;17.75;;;1254.90;1126.40;;;;;;5069469;28;20035;-68
2023/08/25 07:41:21;;;;;;;18.08;16.77;;;1255.00;1100.80;;;;;;5069611;28;20032;-70
2023/08/25 07:43:47;;;;;;;19.02;17.52;;;1280.50;1075.20;;;;;;5069325;28;20036;-69
2023/08/25 07:46:13;;;;;;;19.67;17.92;;;1280.40;1075.20;;;;;;5069056;28;20078;-69
2023/08/25 07:48:38;;;;;;;20.10;18.23;;;1280.50;1049.60;;;;;;5069481;28;20046;-71
2023/08/25 07:51:04;;;;;;;19.67;18.25;;;1229.50;1100.80;;;;;;5069081;28;20020;-69
2023/08/25 07:53:31;;;;;;;19.60;17.98;;;1280.00;1075.20;;;;;;5069031;28;20040;-71
2023/08/25 07:55:58;;;;;;;19.33;17.80;;;1203.90;1126.40;;;;;;5069440;28;20035;-63
2023/08/25 07:58:24;;;;;;;18.30;16.70;;;1254.50;1126.40;;;;;;5069260;28;20028;-70
2023/08/25 08:00:50;;;;;;;19.58;17.83;;;1229.30;1100.80;;;;;;5068775;28;20028;-69
2023/08/25 08:03:16;;;;;;;19.45;17.85;;;1177.70;1152.00;;;;;;5069341;28;20026;-70
2023/08/25 08:05:42;;;;;;;18.83;17.48;;;1152.40;1152.00;;;;;;5068990;28;20059;-69
2023/08/25 08:08:09;;;;;;;20.92;18.77;;;1177.70;1152.00;;;;;;5069404;28;20016;-70
2023/08/25 08:10:36;;;;;;;20.48;18.40;;;1178.00;1152.00;;;;;;5069375;28;20028;-70
2023/08/25 08:13:03;;;;;;;18.42;17.00;;;1203.80;1100.80;;;;;;5068784;28;20068;-71
2023/08/25 08:15:28;;;;;;;18.75;16.88;;;1177.70;1152.00;;;;;;5069384;28;20048;-69
2023/08/25 08:17:55;;;;;;;18.40;16.65;;;1177.60;1152.00;;;;;;5069054;28;20547;-70
2023/08/25 08:20:21;;;;;;;16.58;15.15;;;1178.30;1126.40;;;;;;5068791;28;20155;-68
2023/08/25 08:22:47;;;;;;;19.70;17.60;;;1229.20;1075.20;;;;;;5069099;28;20025;-71
2023/08/25 08:25:14;;;;;;;20.33;16.90;;;1203.80;1126.40;;;;;;5068726;28;20029;-70
2023/08/25 08:27:41;;;;;;;20.25;18.65;;;1178.20;1152.00;;;;;;5068762;28;20029;-66
2023/08/25 08:30:08;;;;;;;17.10;15.65;;;1177.70;1177.60;;;;;;5069203;28;20139;-69
2023/08/25 08:32:35;;;;;;;19.30;17.73;;;1152.40;1203.20;;;;;;5068592;28;20021;-70
2023/08/25 08:35:01;;;;;;;17.65;16.10;;;1178.20;1126.40;;;;;;5068650;28;20558;-71
2023/08/25 08:37:26;;;;;;;17.33;16.08;;;1127.10;1177.60;;;;;;5069279;28;20056;-71
2023/08/25 08:39:52;;;;;;;17.08;15.88;;;1127.00;1203.20;;;;;;5069143;28;20086;-70
2023/08/25 08:42:18;;;;;;;17.00;15.73;;;1101.60;1203.20;;;;;;5068713;28;20030;-71
2023/08/25 08:44:49;;;;;;;17.30;15.82;;;1126.70;1228.80;;;;;;5068176;28;20040;-69
2023/08/25 08:47:17;;;;;;;12.83;11.77;;;1100.80;1254.40;;;;;;5068733;28;20025;-70
2023/08/25 08:49:44;;;;;;;14.85;12.88;;;;;;;;;;5068678;28;20610;-69
2023/08/25 08:52:11;;;;;;;14.13;12.40;;;1024.20;1356.80;;;;;;5068710;28;20043;-67
2023/08/25 08:54:41;;;;;;;12.23;10.93;;;998.80;1408.00;;;;;;5070743;28;20024;-71
2023/08/25 08:57:08;;;;;;;11.48;10.40;;;973.50;1433.60;;;;;;5072654;28;20016;-71
2023/08/25 08:59:34;;;;;;;12.35;11.25;;;948.10;1408.00;;;;;;5072652;28;20115;-72
2023/08/25 09:02:00;;;;;;;10.60;9.45;;;948.10;1408.00;;;;;;5072431;28;20021;-64
2023/08/25 09:04:28;;;;;;;11.43;9.18;;;947.90;1408.00;;;;;;5072349;28;20025;-70
2023/08/25 09:06:57;;;;;;;11.48;9.85;;;972.80;1382.40;;;;;;5072435;28;20017;-69
2023/08/25 09:09:23;;;;;;;17.27;13.25;;;947.60;1408.00;;;;;;5072240;28;20036;-69
2023/08/25 09:11:50;;;;;;;14.32;12.85;;;922.40;1484.80;;;;;;5071812;28;20044;-72
2023/08/25 09:14:27;;;;;;;14.13;11.75;;;947.70;1459.20;;;;;;5072278;28;20074;-69
2023/08/25 09:16:57;;;;;;;13.00;11.70;;;947.50;1484.80;;;;;;5072142;28;20482;-70
2023/08/25 09:19:23;;;;;;;12.73;11.60;;;947.70;1459.20;;;;;;5071945;28;20024;-71
2023/08/25 09:21:49;;;;;;;11.23;10.07;;;947.60;1433.60;;;;;;5072166;28;20024;-70
2023/08/25 09:24:19;;;;;;;13.05;9.93;;;947.20;1459.20;;;;;;5071880;28;20032;-65
2023/08/25 09:26:46;;;;;;;9.95;9.05;;;922.40;1459.20;;;;;;5072216;28;20017;-66
2023/08/25 09:29:12;;;;;;;10.75;9.23;;;922.40;1459.20;;;;;;5071955;28;20116;-69
2023/08/25 09:31:37;;;;;;;11.68;9.90;;;921.80;1484.80;;;;;;5072069;28;20486;-71
2023/08/25 09:34:06;;;;;;;9.95;9.07;;;922.00;1484.80;;;;;;5071767;28;20029;-66
2023/08/25 09:36:32;;;;;;;11.75;8.80;;;922.10;1459.20;;;;;;5071424;28;20707;-69
2023/08/25 09:38:58;;;;;;;12.98;9.80;;;896.90;1459.20;;;;;;5071866;28;20066;-71
2023/08/25 09:41:30;;;;;;;9.38;8.40;;;922.00;1459.20;;;;;;5071571;28;20029;-69
2023/08/25 09:44:00;;;;;;;10.60;9.50;;;921.80;1484.80;;;;;;5071919;28;20149;-69
2023/08/25 09:46:32;;;;;;;9.75;8.70;;;896.90;1484.80;;;;;;5071834;28;20112;-67
2023/08/25 09:49:05;;;;;;;9.93;8.93;;;921.60;1484.80;;;;;;5072026;28;20513;-70
2023/08/25 09:51:35;;;;;;;10.18;9.18;;;896.90;1484.80;;;;;;5069892;28;20060;-68
2023/08/25 09:54:08;;;;;;;11.85;9.13;;;896.70;1484.80;;;;;;5071325;28;20020;-68
2023/08/25 09:56:35;;;;;;;10.77;9.68;;;896.20;1484.80;;;;;;5071507;28;20070;-70
2023/08/25 09:59:03;;;;;;;10.02;8.05;;;896.90;1484.80;;;;;;5071047;28;20471;-69
2023/08/25 10:01:30;;;;;;;9.65;8.55;;;896.90;1484.80;;;;;;5071380;28;20029;-67
2023/08/25 10:03:57;;;;;;;13.55;8.77;;;922.00;1459.20;;;;;;5071388;28;20429;-70
2023/08/25 10:06:23;;;;;;;9.48;8.57;;;922.00;1408.00;;;;;;5052916;28;20036;-64
2023/08/25 10:08:48;;;;;;;9.43;8.50;;;896.80;1433.60;;;;;;5051046;28;20487;-70
2023/08/25 10:11:19;;;;;;;11.07;8.63;;;921.60;1459.20;;;;;;5050754;28;20049;-69
2023/08/25 10:13:47;;;;;;;9.15;8.35;;;896.70;1484.80;;;;;;5062649;28;20078;-68
2023/08/25 10:16:14;;;;;;;9.57;8.40;;;896.90;1459.20;;;;;;5051792;28;20391;-70
2023/08/25 10:18:44;;;;;;;8.93;8.07;;;896.50;1459.20;;;;;;5050819;28;20039;-68
2023/08/25 10:21:10;;;;;;;9.68;7.57;;;896.10;1459.20;;;;;;5050678;28;20032;-70
2023/08/25 10:23:37;;;;;;;9.10;8.20;;;896.00;1484.80;;;;;;5064607;28;20382;-69
2023/08/25 10:26:04;;;;;;;11.15;8.73;;;896.70;1484.80;;;;;;5063400;28;20039;-65
2023/08/25 10:28:30;;;;;;;10.65;9.13;;;896.20;1484.80;;;;;;5053944;28;20412;-67
2023/08/25 10:30:56;;;;;;;13.30;8.93;;;896.30;1510.40;;;;;;5071033;28;20025;-69
2023/08/25 10:33:22;;;;;;;9.80;8.80;;;896.50;1484.80;;;;;;5070563;28;20027;-69
2023/08/25 10:35:49;;;;;;;10.05;9.10;;;896.40;1484.80;;;;;;5070561;28;20549;-70
2023/08/25 10:38:17;;;;;;;13.68;8.50;;;896.30;1484.80;;;;;;5070564;28;20082;-69
2023/08/25 10:40:54;;;;;;;9.75;8.23;;;896.10;1484.80;;;;;;5070408;28;20036;-70
2023/08/25 10:43:33;;;;;;;9.75;8.43;;;896.30;1484.80;;;;;;5057448;28;20027;-67
2023/08/25 10:46:06;;;;;;;10.10;8.70;;;896.00;1510.40;;;;;;5070385;28;20041;-65
2023/08/25 10:48:32;;;;;;;9.05;7.72;;;896.00;1459.20;;;;;;5069825;28;20421;-69
2023/08/25 10:51:11;;;;;;;8.55;7.65;;;871.30;1433.60;;;;;;5070376;28;20017;-67
2023/08/25 10:53:45;;;;;;;9.88;8.63;;;896.00;1433.60;;;;;;5070219;28;20031;-70
2023/08/25 10:56:17;;;;;;;8.60;7.68;;;871.30;1433.60;;;;;;5057677;28;20494;-69
2023/08/25 10:58:53;;;;;;;10.80;8.18;;;896.30;1484.80;;;;;;5070310;28;20020;-68
2023/08/25 11:01:19;;;;;;;11.30;8.10;;;896.40;1459.20;;;;;;5070567;28;20093;-71
2023/08/25 11:04:04;;;;;;;8.43;7.55;;;896.50;1459.20;;;;;;5070063;28;20036;-70
2023/08/25 11:06:36;;;;;;;8.57;7.70;;;896.60;1433.60;;;;;;5070451;28;20070;-68
2023/08/25 11:09:03;;;;;;;12.77;8.73;;;896.50;1433.60;;;;;;5069713;28;20013;-69
2023/08/25 11:11:29;;;;;;;11.52;8.77;;;896.30;1433.60;;;;;;5069817;28;20127;-69
2023/08/25 11:13:58;;;;;;;10.52;9.18;;;896.00;1459.20;;;;;;5069904;28;20052;-69
2023/08/25 11:16:23;;;;;;;12.20;9.05;;;896.40;1484.80;;;;;;5069980;28;20107;-70
2023/08/25 11:18:49;;;;;;;11.25;9.88;;;896.40;1484.80;;;;;;5069955;28;20136;-69
2023/08/25 11:21:15;;;;;;;11.32;8.98;;;896.50;1459.20;;;;;;5069958;28;20024;-67
2023/08/25 11:23:42;;;;;;;10.13;8.65;;;896.60;1484.80;;;;;;5069283;28;20390;-68
2023/08/25 11:26:08;;;;;;;11.73;9.20;;;896.80;1459.20;;;;;;5069550;28;20062;-71
2023/08/25 11:28:35;;;;;;;10.45;9.15;;;896.40;1459.20;;;;;;5069396;28;20657;-69
2023/08/25 11:31:01;;;;;;;9.60;8.65;;;896.30;1459.20;;;;;;5069500;28;20021;-61
2023/08/25 11:33:29;;;;;;;9.50;8.38;;;896.30;1433.60;;;;;;5069771;28;20089;-66
2023/08/25 11:35:55;;;;;;;12.70;9.68;;;896.40;1459.20;;;;;;5069957;28;20106;-69
2023/08/25 11:38:21;;;;;;;15.73;9.95;;;896.50;1433.60;;;;;;5069348;28;20054;-66
2023/08/25 11:40:46;;;;;;;10.77;9.68;;;871.30;1484.80;;;;;;5069470;28;20024;-70
2023/08/25 11:43:12;;;;;;;11.60;8.85;;;896.00;1459.20;;;;;;5069544;28;20483;-70
2023/08/25 11:45:38;;;;;;;11.55;9.65;;;871.20;1459.20;;;;;;5069351;28;20375;-68
2023/08/25 11:48:04;;;;;;;10.30;8.90;;;871.20;1484.80;;;;;;5068608;28;20017;-69
2023/08/25 11:50:30;;;;;;;9.88;8.95;;;871.30;1459.20;;;;;;5069134;28;20020;-65
2023/08/25 11:52:56;;;;;;;10.55;9.45;;;896.30;1484.80;;;;;;5069501;28;20025;-69
2023/08/25 11:55:31;;;;;;;13.15;9.05;;;896.00;1459.20;;;;;;5069486;28;20024;-69
2023/08/25 11:57:57;;;;;;;12.27;9.27;;;896.00;1459.20;;;;;;5069091;28;20073;-67
2023/08/25 12:00:23;;;;;;;10.43;9.40;;;896.30;1459.20;;;;;;5051310;28;20429;-69
2023/08/25 12:02:58;;;;;;;11.02;10.02;;;896.30;1459.20;;;;;;5069130;28;20074;-69
2023/08/25 12:05:28;;;;;;;13.70;9.05;;;896.00;1459.20;;;;;;5067100;28;20032;-62
2023/08/25 12:08:00;;;;;;;13.57;9.43;;;871.20;1459.20;;;;;;5067198;28;20051;-69